Time;durP1;ratioP1;P1;durP2;ratioP2;P2;SDS_P1;SDS_P2;PMS_P1;PMS_P2;Temp;Humidity;BMP_temperature;BMP_pressure;BME280_temperature;BME280_humidity;BME280_pressure;Samples;Min_cycle;Max_cycle;Signal;HPM_P1;HPM_P2
2022/12/11 00:00:41;;;;;;;49.13;20.00;;;1.80;99.90;;;;;;5039336;28;20025;-40
2022/12/11 00:03:07;;;;;;;48.90;17.88;;;1.80;99.90;;;;;;5039788;28;20943;-39
2022/12/11 00:05:32;;;;;;;48.40;18.55;;;1.80;99.90;;;;;;5041462;28;20110;-39
2022/12/11 00:07:59;;;;;;;42.95;16.38;;;1.80;99.90;;;;;;5044551;28;20029;-39
2022/12/11 00:10:25;;;;;;;50.03;18.23;;;1.80;99.90;;;;;;5043854;28;20112;-38
2022/12/11 00:12:50;;;;;;;37.80;16.90;;;1.90;99.90;;;;;;5043576;28;20393;-39
2022/12/11 00:15:16;;;;;;;36.53;15.27;;;1.90;99.90;;;;;;5044063;28;20029;-40
2022/12/11 00:17:42;;;;;;;42.67;16.58;;;1.90;99.90;;;;;;5043753;28;20029;-40
2022/12/11 00:20:08;;;;;;;38.08;15.55;;;1.90;99.90;;;;;;5042677;28;20461;-39
2022/12/11 00:22:33;;;;;;;42.38;15.23;;;1.90;99.90;;;;;;5043747;28;20029;-39
2022/12/11 00:24:59;;;;;;;39.60;15.65;;;1.90;99.90;;;;;;5042659;28;20024;-37
2022/12/11 00:27:24;;;;;;;39.78;16.58;;;1.90;99.90;;;;;;5043234;28;20032;-38
2022/12/11 00:29:50;;;;;;;41.63;16.25;;;1.90;99.90;;;;;;5042310;28;20044;-39
2022/12/11 00:32:16;;;;;;;41.38;16.98;;;2.00;99.90;;;;;;5041941;28;20045;-40
2022/12/11 00:34:41;;;;;;;38.75;15.00;;;2.00;99.90;;;;;;5043347;28;20483;-41
2022/12/11 00:37:07;;;;;;;36.08;15.98;;;1.90;99.90;;;;;;5043251;28;20017;-39
2022/12/11 00:39:32;;;;;;;41.63;16.85;;;2.00;99.90;;;;;;5042928;28;20074;-40
2022/12/11 00:41:58;;;;;;;38.40;15.85;;;1.90;99.90;;;;;;5042928;28;20029;-40
2022/12/11 00:44:24;;;;;;;43.30;15.88;;;1.90;99.90;;;;;;5044389;28;20029;-34
2022/12/11 00:46:49;;;;;;;40.90;16.25;;;1.90;99.90;;;;;;5042432;28;20061;-36
2022/12/11 00:49:15;;;;;;;38.50;15.23;;;1.90;99.90;;;;;;5043127;28;20025;-38
2022/12/11 00:51:41;;;;;;;37.30;15.88;;;2.00;99.90;;;;;;5043232;28;20036;-41
2022/12/11 00:54:06;;;;;;;40.35;17.30;;;2.00;99.90;;;;;;5042958;28;20136;-39
2022/12/11 00:56:33;;;;;;;40.35;17.23;;;2.00;99.90;;;;;;5043225;28;20060;-41
2022/12/11 00:58:59;;;;;;;38.95;15.90;;;2.00;99.90;;;;;;5043196;28;20025;-38
2022/12/11 01:01:25;;;;;;;35.83;15.95;;;2.00;99.90;;;;;;5042276;28;20142;-38
2022/12/11 01:03:51;;;;;;;41.20;16.85;;;2.00;99.90;;;;;;5042652;28;20025;-39
2022/12/11 01:06:28;;;;;;;41.88;16.67;;;2.00;99.90;;;;;;5041738;28;20202;-39
2022/12/11 01:11:39;;;;;;;34.10;15.35;;;2.10;99.90;;;;;;5042334;28;20448;-39
2022/12/11 01:14:05;;;;;;;36.05;15.90;;;2.10;99.90;;;;;;5042232;28;20040;-37
2022/12/11 01:16:30;;;;;;;33.75;14.38;;;2.10;99.90;;;;;;5041128;28;20021;-39
2022/12/11 01:18:57;;;;;;;35.67;14.65;;;2.00;99.90;;;;;;5042714;28;20036;-38
2022/12/11 01:21:23;;;;;;;39.47;15.48;;;2.10;99.90;;;;;;5040420;28;20025;-39
2022/12/11 01:23:51;;;;;;;35.33;15.60;;;2.10;99.90;;;;;;5033820;28;20099;-39
2022/12/11 01:26:18;;;;;;;36.97;15.50;;;2.10;99.90;;;;;;5041622;28;20475;-39
2022/12/11 01:28:43;;;;;;;38.95;15.55;;;2.10;99.90;;;;;;5040600;28;20025;-38
2022/12/11 01:31:11;;;;;;;40.78;15.85;;;2.10;99.90;;;;;;5041428;28;20673;-36
2022/12/11 01:33:37;;;;;;;34.65;15.15;;;2.10;99.90;;;;;;5041365;28;20082;-38
2022/12/11 01:36:08;;;;;;;40.05;15.57;;;2.10;99.90;;;;;;5041073;28;20025;-39
2022/12/11 01:38:34;;;;;;;36.92;15.57;;;2.10;99.90;;;;;;5041926;28;20392;-38
2022/12/11 01:40:59;;;;;;;40.13;16.70;;;2.10;99.90;;;;;;5042110;28;20033;-39
2022/12/11 01:43:25;;;;;;;35.67;15.68;;;2.10;99.90;;;;;;5041983;28;20380;-39
2022/12/11 01:45:50;;;;;;;39.60;16.48;;;2.10;99.90;;;;;;5041667;28;20529;-39
2022/12/11 01:48:21;;;;;;;37.22;14.30;;;2.10;99.90;;;;;;5041134;28;20403;-40
2022/12/11 01:50:52;;;;;;;36.47;15.77;;;2.10;99.90;;;;;;5040909;28;20039;-39
2022/12/11 01:53:25;;;;;;;40.50;16.83;;;2.10;99.90;;;;;;5041125;28;20084;-39
2022/12/11 01:55:52;;;;;;;;;;;2.10;99.90;;;;;;5042099;28;20433;-38
2022/12/11 01:58:21;;;;;;;37.58;14.90;;;2.10;99.90;;;;;;5040906;28;20590;-38
2022/12/11 02:00:46;;;;;;;38.80;15.07;;;2.10;99.90;;;;;;5041324;28;20037;-39
2022/12/11 02:03:12;;;;;;;38.40;15.40;;;2.10;99.90;;;;;;5041193;28;20025;-36
2022/12/11 02:05:38;;;;;;;37.83;15.35;;;2.10;99.90;;;;;;5040807;28;20040;-40
2022/12/11 02:08:05;;;;;;;37.17;14.65;;;2.10;99.90;;;;;;5041530;28;20028;-38
2022/12/11 02:10:57;;;;;;;41.03;16.40;;;2.10;99.90;;;;;;5041359;28;20142;-38
2022/12/11 02:13:47;;;;;;;39.00;15.65;;;2.10;99.90;;;;;;5041716;28;20049;-39
2022/12/11 02:16:21;;;;;;;36.42;15.38;;;2.10;99.90;;;;;;5033352;28;20484;-39
2022/12/11 02:18:53;;;;;;;36.60;14.27;;;2.10;99.90;;;;;;5040651;28;20512;-38
2022/12/11 02:21:24;;;;;;;39.72;16.77;;;2.10;99.90;;;;;;5041461;28;20025;-40
2022/12/11 02:24:14;;;;;;;45.85;17.52;;;2.10;99.90;;;;;;5041032;28;20083;-39
2022/12/11 02:27:05;;;;;;;40.15;15.85;;;2.10;99.90;;;;;;5040810;28;20045;-36
2022/12/11 02:29:36;;;;;;;40.53;16.67;;;2.10;99.90;;;;;;5041585;28;20555;-39
2022/12/11 02:32:21;;;;;;;37.20;15.63;;;2.10;99.90;;;;;;5040334;28;20135;-36
2022/12/11 02:35:04;;;;;;;33.67;13.68;;;2.10;99.90;;;;;;5041162;28;20025;-39
2022/12/11 02:37:31;;;;;;;43.42;15.43;;;2.10;99.90;;;;;;5042032;28;20381;-38
2022/12/11 02:39:57;;;;;;;36.83;14.60;;;2.10;99.90;;;;;;5040063;28;20392;-41
2022/12/11 02:42:28;;;;;;;39.95;15.82;;;2.10;99.90;;;;;;5040999;28;20086;-40
2022/12/11 02:44:56;;;;;;;41.47;16.40;;;2.10;99.90;;;;;;5040851;28;20032;-40
2022/12/11 02:47:24;;;;;;;36.03;14.70;;;2.20;99.90;;;;;;5040411;28;20477;-40
2022/12/11 02:49:50;;;;;;;35.20;14.77;;;2.20;99.90;;;;;;5040772;28;20043;-39
2022/12/11 02:52:20;;;;;;;39.55;15.15;;;2.20;99.90;;;;;;5040435;28;20061;-40
2022/12/11 02:54:48;;;;;;;37.90;14.75;;;2.20;99.90;;;;;;5039785;28;20135;-39
2022/12/11 02:57:20;;;;;;;34.55;14.73;;;2.20;99.90;;;;;;5029894;28;20095;-38
2022/12/11 02:59:46;;;;;;;38.83;15.90;;;2.10;99.90;;;;;;5039757;28;20048;-39
2022/12/11 03:02:13;;;;;;;41.40;16.48;;;2.10;99.90;;;;;;5040256;28;20536;-39
2022/12/11 03:04:40;;;;;;;37.22;15.55;;;2.20;99.90;;;;;;5040397;28;20132;-40
2022/12/11 03:07:14;;;;;;;38.00;16.17;;;2.10;99.90;;;;;;5035764;28;20036;-40
2022/12/11 03:09:43;;;;;;;43.20;16.15;;;2.10;99.90;;;;;;5040457;28;20110;-39
2022/12/11 03:12:13;;;;;;;38.28;15.90;;;2.10;99.90;;;;;;5039183;28;20066;-38
2022/12/11 03:14:40;;;;;;;33.42;14.88;;;2.10;99.90;;;;;;5040033;28;20037;-38
2022/12/11 03:17:23;;;;;;;36.65;15.13;;;2.20;99.90;;;;;;5040369;28;20033;-36
2022/12/11 03:20:25;;;;;;;40.92;16.45;;;2.20;99.90;;;;;;5040309;28;20013;-39
2022/12/11 03:23:01;;;;;;;43.53;17.57;;;2.20;99.90;;;;;;5038060;28;20558;-39
2022/12/11 03:25:36;;;;;;;44.40;18.63;;;2.20;99.90;;;;;;5040237;28;20033;-39
2022/12/11 03:28:12;;;;;;;40.20;16.23;;;2.20;99.90;;;;;;5039262;28;20032;-38
2022/12/11 03:30:40;;;;;;;47.30;18.88;;;2.20;99.90;;;;;;5038875;28;20152;-38
2022/12/11 03:33:14;;;;;;;44.95;17.83;;;2.20;99.90;;;;;;5039512;28;20384;-38
2022/12/11 03:35:50;;;;;;;39.55;16.20;;;2.20;99.90;;;;;;5039330;28;20538;-40
2022/12/11 03:38:22;;;;;;;42.33;17.52;;;2.20;99.90;;;;;;5039494;28;20068;-38
2022/12/11 03:40:52;;;;;;;37.55;15.43;;;2.20;99.90;;;;;;5039131;28;20052;-40
2022/12/11 03:43:19;;;;;;;35.72;14.50;;;2.20;99.90;;;;;;5035463;28;20036;-39
2022/12/11 03:45:47;;;;;;;34.58;15.75;;;2.30;99.90;;;;;;5039742;28;20025;-41
2022/12/11 03:48:15;;;;;;;43.33;16.65;;;2.30;99.90;;;;;;5038426;28;20059;-38
2022/12/11 03:50:42;;;;;;;37.47;16.38;;;2.30;99.90;;;;;;5039194;28;20033;-40
2022/12/11 03:53:08;;;;;;;38.78;15.18;;;2.30;99.90;;;;;;5039486;28;20608;-39
2022/12/11 03:55:36;;;;;;;44.42;17.13;;;2.40;99.90;;;;;;5039526;28;20468;-40
2022/12/11 03:58:02;;;;;;;42.53;16.45;;;2.40;99.90;;;;;;5039247;28;20026;-40
2022/12/11 04:00:28;;;;;;;53.85;19.60;;;2.40;99.90;;;;;;5039971;28;20048;-40
2022/12/11 04:03:12;;;;;;;42.25;17.52;;;2.40;99.90;;;;;;5039451;28;20021;-40
2022/12/11 04:05:52;;;;;;;38.40;15.93;;;2.40;99.90;;;;;;5039296;28;20025;-39
2022/12/11 04:08:21;;;;;;;39.17;17.38;;;2.40;99.90;;;;;;5039211;28;20060;-39
2022/12/11 04:11:33;;;;;;;44.92;16.95;;;2.40;99.90;;;;;;5039181;28;20036;-39
2022/12/11 04:13:33;;;;;;;44.75;17.63;;;2.40;99.90;;;;;;5038795;28;20041;-40
2022/12/11 04:15:59;;;;;;;39.70;16.38;;;2.40;99.90;;;;;;5039142;28;20095;-38
2022/12/11 04:24:15;;;;;;;43.30;17.42;;;2.40;99.90;;;;;;5030061;28;20732;-36
2022/12/11 04:26:43;;;;;;;39.15;16.77;;;2.40;99.90;;;;;;5019678;28;20025;-39
2022/12/11 04:29:08;;;;;;;41.83;17.88;;;2.40;99.90;;;;;;5035055;28;20021;-36
2022/12/11 04:31:34;;;;;;;39.10;16.50;;;2.40;99.90;;;;;;5037889;28;20211;-39
2022/12/11 04:33:59;;;;;;;37.20;15.85;;;2.40;99.90;;;;;;5038722;28;20040;-39
2022/12/11 04:36:25;;;;;;;35.95;15.52;;;2.40;99.90;;;;;;5039928;28;20132;-39
2022/12/11 04:38:50;;;;;;;37.35;16.58;;;2.40;99.90;;;;;;5038649;28;20052;-38
2022/12/11 04:41:16;;;;;;;39.90;16.77;;;2.40;99.90;;;;;;5038973;28;20033;-37
2022/12/11 04:43:45;;;;;;;38.72;16.80;;;2.40;99.90;;;;;;5039394;28;20029;-39
2022/12/11 04:46:14;;;;;;;37.92;17.17;;;2.40;99.90;;;;;;5038607;28;20025;-38
2022/12/11 04:48:40;;;;;;;42.75;17.20;;;2.50;99.90;;;;;;5039160;28;20036;-34
2022/12/11 04:51:07;;;;;;;37.58;16.20;;;2.50;99.90;;;;;;5040043;28;20067;-35
2022/12/11 04:53:33;;;;;;;35.40;15.80;;;2.50;99.90;;;;;;5041962;28;20033;-39
2022/12/11 04:55:59;;;;;;;36.95;16.55;;;2.50;99.90;;;;;;5042406;28;20025;-40
2022/12/11 04:58:25;;;;;;;41.40;16.80;;;2.50;99.90;;;;;;5042647;28;20021;-40
2022/12/11 05:00:52;;;;;;;36.67;16.02;;;2.60;99.90;;;;;;5042259;28;20024;-38
2022/12/11 05:03:17;;;;;;;38.60;16.15;;;2.50;99.90;;;;;;5042950;28;20057;-38
2022/12/11 05:05:48;;;;;;;37.33;16.63;;;2.50;99.90;;;;;;5042659;28;20108;-40
2022/12/11 05:08:13;;;;;;;35.92;16.70;;;2.50;99.90;;;;;;5042089;28;20076;-40
2022/12/11 05:10:39;;;;;;;37.58;16.33;;;2.50;99.90;;;;;;5042151;28;20457;-39
2022/12/11 05:13:04;;;;;;;35.72;16.27;;;2.50;99.90;;;;;;5042672;28;20124;-37
2022/12/11 05:15:30;;;;;;;34.63;16.98;;;2.50;99.90;;;;;;5042282;28;20108;-39
2022/12/11 05:17:55;;;;;;;34.97;16.38;;;2.50;99.90;;;;;;5042397;28;20029;-39
2022/12/11 05:20:21;;;;;;;37.90;17.27;;;2.50;99.90;;;;;;5041737;28;20036;-39
2022/12/11 05:22:47;;;;;;;35.42;16.50;;;2.50;99.90;;;;;;5041671;28;20876;-38
2022/12/11 05:25:12;;;;;;;30.85;14.95;;;2.50;99.90;;;;;;5042699;28;20399;-39
2022/12/11 05:27:38;;;;;;;29.30;14.82;;;2.50;99.90;;;;;;5042358;28;20021;-39
2022/12/11 05:30:04;;;;;;;31.83;16.15;;;2.50;99.90;;;;;;5042474;28;20017;-37
2022/12/11 05:32:29;;;;;;;28.85;14.82;;;2.50;99.90;;;;;;5042144;28;20057;-38
2022/12/11 05:34:55;;;;;;;34.03;16.25;;;2.60;99.90;;;;;;5041355;28;20032;-39
2022/12/11 05:37:20;;;;;;;32.70;16.98;;;2.60;99.90;;;;;;5042061;28;20037;-39
2022/12/11 05:39:46;;;;;;;31.27;15.88;;;2.60;99.90;;;;;;5041843;28;20021;-39
2022/12/11 05:42:15;;;;;;;31.95;16.38;;;2.50;99.90;;;;;;5041262;28;20093;-39
2022/12/11 05:44:40;;;;;;;35.13;16.85;;;2.60;99.90;;;;;;5041863;28;20079;-39
2022/12/11 05:47:06;;;;;;;37.55;18.17;;;2.60;99.90;;;;;;5041333;28;20634;-38
2022/12/11 05:49:31;;;;;;;31.42;16.42;;;2.60;99.90;;;;;;5041283;28;20482;-40
2022/12/11 05:51:57;;;;;;;33.25;16.83;;;2.60;99.90;;;;;;5041105;28;20511;-39
2022/12/11 05:54:22;;;;;;;35.88;17.27;;;2.60;99.90;;;;;;5042307;28;20041;-39
2022/12/11 05:56:50;;;;;;;28.95;15.20;;;2.60;99.90;;;;;;5040685;28;20028;-39
2022/12/11 05:59:15;;;;;;;33.42;16.05;;;2.60;99.90;;;;;;5041565;28;20037;-39
2022/12/11 06:01:41;;;;;;;36.08;17.60;;;2.60;99.90;;;;;;5041752;28;20103;-40
2022/12/11 06:04:09;;;;;;;33.75;17.88;;;2.60;99.90;;;;;;5041349;28;20194;-39
2022/12/11 06:06:36;;;;;;;35.63;18.40;;;2.60;99.90;;;;;;5041383;28;20108;-39
2022/12/11 06:09:04;;;;;;;30.92;16.20;;;2.50;99.90;;;;;;5041335;28;20041;-40
2022/12/11 06:11:31;;;;;;;32.08;16.55;;;2.60;99.90;;;;;;5041328;28;20025;-39
2022/12/11 06:13:57;;;;;;;30.75;16.88;;;2.60;99.90;;;;;;5041316;28;20088;-40
2022/12/11 06:16:23;;;;;;;32.17;16.17;;;2.60;99.90;;;;;;5041605;28;20102;-39
2022/12/11 06:18:50;;;;;;;30.88;16.58;;;2.60;99.90;;;;;;5040796;28;20029;-37
2022/12/11 06:21:30;;;;;;;35.10;17.70;;;2.60;99.90;;;;;;5041115;28;20032;-38
2022/12/11 06:23:58;;;;;;;33.63;17.55;;;2.60;99.90;;;;;;5040148;28;20392;-37
2022/12/11 06:26:24;;;;;;;32.47;16.95;;;2.50;99.90;;;;;;5041300;28;20367;-39
2022/12/11 06:28:50;;;;;;;30.55;16.75;;;2.50;99.90;;;;;;5037503;28;20052;-38
2022/12/11 06:31:16;;;;;;;29.92;17.50;;;2.50;99.90;;;;;;5039643;28;20401;-39
2022/12/11 06:33:42;;;;;;;29.73;15.77;;;2.50;99.90;;;;;;5039560;28;20033;-37
2022/12/11 06:36:15;;;;;;;28.00;16.45;;;2.50;99.90;;;;;;5041287;28;20380;-35
2022/12/11 06:38:41;;;;;;;30.58;16.98;;;2.50;99.90;;;;;;5040286;28;20025;-39
2022/12/11 06:41:08;;;;;;;28.33;15.38;;;2.50;99.90;;;;;;5040667;28;20112;-37
2022/12/11 06:43:35;;;;;;;29.02;15.75;;;2.50;99.90;;;;;;5041239;28;20051;-40
2022/12/11 06:46:05;;;;;;;27.42;15.60;;;2.50;99.90;;;;;;5039340;28;20477;-39
2022/12/11 06:48:31;;;;;;;27.83;16.33;;;2.50;99.90;;;;;;5041352;28;20108;-39
2022/12/11 06:50:57;;;;;;;29.85;16.60;;;2.50;99.90;;;;;;5041238;28;20031;-38
2022/12/11 06:53:22;;;;;;;24.50;15.05;;;2.50;99.90;;;;;;5040598;28;20039;-40
2022/12/11 06:55:48;;;;;;;29.50;16.85;;;2.50;99.90;;;;;;5040465;28;20054;-40
2022/12/11 06:58:14;;;;;;;29.63;18.83;;;2.40;99.90;;;;;;5039999;28;20052;-36
2022/12/11 07:00:39;;;;;;;30.42;18.25;;;2.40;99.90;;;;;;5039245;28;20094;-39
2022/12/11 07:03:05;;;;;;;29.55;17.33;;;2.40;99.90;;;;;;5039890;28;20142;-38
2022/12/11 07:05:32;;;;;;;26.90;16.45;;;2.40;99.90;;;;;;5040717;28;20020;-38
2022/12/11 07:07:57;;;;;;;25.92;15.40;;;2.40;99.90;;;;;;5039654;28;20033;-38
2022/12/11 07:10:23;;;;;;;25.85;15.93;;;2.40;99.90;;;;;;5041254;28;20040;-38
2022/12/11 07:12:51;;;;;;;27.02;16.10;;;2.40;99.90;;;;;;5040187;28;20492;-38
2022/12/11 07:15:17;;;;;;;27.15;16.52;;;2.40;99.90;;;;;;5039067;28;20037;-39
2022/12/11 07:17:42;;;;;;;25.73;13.90;;;2.40;99.90;;;;;;5040238;28;20858;-39
2022/12/11 07:20:08;;;;;;;23.00;14.05;;;2.40;99.90;;;;;;5039182;28;20777;-39
2022/12/11 07:22:34;;;;;;;24.17;14.05;;;2.30;99.90;;;;;;5040032;28;20035;-38
2022/12/11 07:25:00;;;;;;;24.08;13.93;;;2.40;99.90;;;;;;5039848;28;20033;-39
2022/12/11 07:27:25;;;;;;;21.42;12.93;;;2.40;99.90;;;;;;5039309;28;20033;-39
2022/12/11 07:29:51;;;;;;;23.05;13.98;;;2.40;99.90;;;;;;5039698;28;20021;-40
2022/12/11 07:32:17;;;;;;;29.15;16.90;;;2.30;99.90;;;;;;5039407;28;20067;-36
2022/12/11 07:34:43;;;;;;;30.23;17.33;;;2.30;99.90;;;;;;5038592;28;20481;-39
2022/12/11 07:37:09;;;;;;;28.80;17.48;;;2.30;99.90;;;;;;5039542;28;20035;-39
2022/12/11 07:39:34;;;;;;;27.30;16.70;;;2.20;99.90;;;;;;5039141;28;20033;-39
2022/12/11 07:42:00;;;;;;;24.35;15.20;;;2.20;99.90;;;;;;5039159;28;20480;-36
2022/12/11 07:44:25;;;;;;;26.50;16.42;;;2.20;99.90;;;;;;5039896;28;20036;-39
2022/12/11 07:46:51;;;;;;;24.65;14.77;;;2.20;99.90;;;;;;5039317;28;20029;-38
2022/12/11 07:49:16;;;;;;;25.40;15.52;;;2.20;99.90;;;;;;5039526;28;20036;-38
2022/12/11 07:51:42;;;;;;;23.77;14.30;;;2.20;99.90;;;;;;5039906;28;20112;-38
2022/12/11 07:54:15;;;;;;;22.25;13.30;;;2.20;99.90;;;;;;5039514;28;20514;-40
2022/12/11 07:56:43;;;;;;;21.33;12.68;;;2.20;99.90;;;;;;5038403;28;20017;-39
2022/12/11 07:59:09;;;;;;;21.85;13.63;;;2.20;99.90;;;;;;5036906;28;20029;-39
2022/12/11 08:01:36;;;;;;;21.83;13.23;;;2.20;99.90;;;;;;5038738;28;20045;-39
2022/12/11 08:04:04;;;;;;;23.08;13.25;;;2.30;99.90;;;;;;5039122;28;20033;-38
2022/12/11 08:06:32;;;;;;;20.65;13.20;;;2.20;99.90;;;;;;5038839;28;20029;-38
2022/12/11 08:08:59;;;;;;;22.52;13.63;;;2.20;99.90;;;;;;5038095;28;20974;-40
2022/12/11 08:11:25;;;;;;;23.33;13.63;;;2.30;99.90;;;;;;5037595;28;20491;-39
2022/12/11 08:13:50;;;;;;;20.05;12.95;;;2.30;99.90;;;;;;5038107;28;20036;-38
2022/12/11 08:16:17;;;;;;;19.55;12.23;;;2.30;99.90;;;;;;5038072;28;20447;-40
2022/12/11 08:18:44;;;;;;;16.40;10.38;;;2.30;99.90;;;;;;5038708;28;20037;-39
2022/12/11 08:21:16;;;;;;;15.45;10.40;;;2.40;99.90;;;;;;5038734;28;20033;-40
2022/12/11 08:23:42;;;;;;;18.00;11.70;;;2.30;99.90;;;;;;5037573;28;20035;-39
2022/12/11 08:26:16;;;;;;;19.77;13.10;;;2.30;99.90;;;;;;5041025;28;20017;-40
2022/12/11 08:28:42;;;;;;;18.67;11.57;;;2.30;99.90;;;;;;5042643;28;20029;-40
2022/12/11 08:31:09;;;;;;;19.60;12.02;;;2.30;99.90;;;;;;5041269;28;20645;-39
2022/12/11 08:33:36;;;;;;;16.65;10.65;;;2.30;99.90;;;;;;5042019;28;20123;-38
2022/12/11 08:36:07;;;;;;;18.75;11.82;;;2.20;99.90;;;;;;5041235;28;20774;-39
2022/12/11 08:38:33;;;;;;;18.40;11.50;;;2.20;99.90;;;;;;5041115;28;20033;-39
2022/12/11 08:41:06;;;;;;;19.08;11.63;;;2.20;99.90;;;;;;5042110;28;20048;-39
2022/12/11 08:43:32;;;;;;;20.20;13.20;;;2.20;99.90;;;;;;5042610;28;20424;-37
2022/12/11 08:45:58;;;;;;;18.27;11.85;;;2.30;99.90;;;;;;5042010;28;20091;-38
2022/12/11 08:48:23;;;;;;;16.98;11.38;;;2.30;99.90;;;;;;5042499;28;20461;-41
2022/12/11 08:50:49;;;;;;;19.33;11.65;;;2.30;99.90;;;;;;5042333;28;20032;-39
2022/12/11 08:53:15;;;;;;;15.35;10.48;;;2.30;99.90;;;;;;5041217;28;20041;-39
2022/12/11 08:55:41;;;;;;;13.98;9.65;;;2.30;99.90;;;;;;5042125;28;20059;-37
2022/12/11 08:58:06;;;;;;;16.40;9.50;;;2.30;99.90;;;;;;5041199;28;20025;-39
2022/12/11 09:00:32;;;;;;;15.07;10.10;;;2.30;99.90;;;;;;5041176;28;20021;-37
2022/12/11 09:02:57;;;;;;;15.18;9.85;;;2.40;99.90;;;;;;5041419;28;20457;-37
2022/12/11 09:05:23;;;;;;;14.52;9.05;;;2.40;99.90;;;;;;5042531;28;20472;-38
2022/12/11 09:07:48;;;;;;;14.68;9.88;;;2.50;99.90;;;;;;5041251;28;20487;-39
2022/12/11 09:10:14;;;;;;;16.73;10.13;;;2.50;99.90;;;;;;5041073;28;20066;-38
2022/12/11 09:12:39;;;;;;;16.05;9.73;;;2.50;99.90;;;;;;5040573;28;20107;-41
2022/12/11 09:15:05;;;;;;;14.02;8.85;;;2.50;99.90;;;;;;5040898;28;20037;-39
2022/12/11 09:17:34;;;;;;;14.00;9.55;;;2.50;99.90;;;;;;5041567;28;20075;-35
2022/12/11 09:19:59;;;;;;;16.85;9.88;;;2.60;99.90;;;;;;5029465;28;20025;-39
2022/12/11 09:22:25;;;;;;;15.15;10.00;;;2.60;99.90;;;;;;5042025;28;20614;-39
2022/12/11 09:24:51;;;;;;;13.38;9.27;;;2.60;99.90;;;;;;5041188;28;20079;-37
2022/12/11 09:27:16;;;;;;;15.68;8.98;;;2.60;99.90;;;;;;5040806;28;20025;-39
2022/12/11 09:29:42;;;;;;;14.88;9.48;;;2.60;99.90;;;;;;5041031;28;20021;-37
2022/12/11 09:32:07;;;;;;;14.48;9.77;;;2.70;99.90;;;;;;5040807;28;20506;-39
2022/12/11 09:34:33;;;;;;;15.48;9.65;;;2.70;99.90;;;;;;5040026;28;20044;-40
2022/12/11 09:36:58;;;;;;;14.63;9.25;;;2.70;99.90;;;;;;5040707;28;20028;-39
2022/12/11 09:39:24;;;;;;;13.55;9.23;;;2.70;99.90;;;;;;5041441;28;20441;-40
2022/12/11 09:42:03;;;;;;;16.70;8.95;;;2.60;99.90;;;;;;5041383;28;20067;-39
2022/12/11 09:44:52;;;;;;;15.05;9.68;;;2.70;99.90;;;;;;5041920;28;20025;-32
2022/12/11 09:47:22;;;;;;;14.48;9.45;;;2.70;99.90;;;;;;5021803;28;20021;-36
2022/12/11 09:49:54;;;;;;;13.85;9.10;;;2.70;99.90;;;;;;5034944;28;20036;-35
2022/12/11 09:52:29;;;;;;;16.30;10.65;;;2.70;99.90;;;;;;5040796;28;20094;-38
2022/12/11 09:55:02;;;;;;;14.05;9.60;;;2.70;99.90;;;;;;5040082;28;20029;-40
2022/12/11 09:57:31;;;;;;;14.68;9.73;;;2.70;99.90;;;;;;5040812;28;20029;-37
2022/12/11 10:00:10;;;;;;;17.05;10.52;;;2.80;99.90;;;;;;5039916;28;20036;-38
2022/12/11 10:03:06;;;;;;;16.05;10.82;;;2.80;99.90;;;;;;5040408;28;20489;-38
2022/12/11 10:05:40;;;;;;;19.63;13.15;;;2.80;99.90;;;;;;5040503;28;20032;-37
2022/12/11 10:08:21;;;;;;;22.20;13.40;;;2.70;99.90;;;;;;5040843;28;20607;-37
2022/12/11 10:11:27;;;;;;;24.02;15.60;;;2.70;99.90;;;;;;5040106;28;20074;-39
2022/12/11 10:14:20;;;;;;;22.00;14.25;;;2.70;99.90;;;;;;5034415;28;20499;-36
2022/12/11 10:16:45;;;;;;;22.13;14.48;;;2.70;99.90;;;;;;5046375;28;20037;-37
2022/12/11 10:19:18;;;;;;;19.42;12.57;;;2.70;99.90;;;;;;5041492;28;20479;-39
2022/12/11 10:21:46;;;;;;;20.67;12.75;;;2.80;99.90;;;;;;5038466;28;20377;-38
2022/12/11 10:24:35;;;;;;;19.33;12.23;;;2.90;99.90;;;;;;5040150;28;20074;-39
2022/12/11 10:27:20;;;;;;;19.38;12.10;;;2.90;99.90;;;;;;5039198;28;20108;-38
2022/12/11 10:29:50;;;;;;;18.73;12.77;;;2.90;99.90;;;;;;5041581;28;20169;-38
2022/12/11 10:32:23;;;;;;;18.10;12.18;;;2.90;99.90;;;;;;5040405;28;20053;-38
2022/12/11 10:34:58;;;;;;;22.67;13.95;;;3.00;99.90;;;;;;5041000;28;20033;-36
2022/12/11 10:37:23;;;;;;;24.55;15.27;;;3.00;99.90;;;;;;5040715;28;20039;-36
2022/12/11 10:39:49;;;;;;;24.75;15.25;;;3.00;99.90;;;;;;5040359;28;20759;-40
2022/12/11 10:42:21;;;;;;;23.95;15.85;;;3.00;99.90;;;;;;5040643;28;20087;-39
2022/12/11 10:45:04;;;;;;;24.10;15.73;;;3.00;99.90;;;;;;5040526;28;20032;-40
2022/12/11 10:47:32;;;;;;;20.75;13.82;;;2.90;99.90;;;;;;5037625;28;20108;-40
2022/12/11 10:50:00;;;;;;;21.40;13.50;;;3.00;99.90;;;;;;5039241;28;20816;-44
2022/12/11 10:52:39;;;;;;;19.77;12.88;;;3.00;99.90;;;;;;5040043;28;20120;-40
2022/12/11 10:55:16;;;;;;;17.58;11.95;;;3.00;99.90;;;;;;5041304;28;20033;-38
2022/12/11 10:57:42;;;;;;;20.17;12.63;;;3.00;99.90;;;;;;5039688;28;20024;-41
2022/12/11 11:00:33;;;;;;;16.20;10.90;;;3.00;99.90;;;;;;5040005;28;20060;-35
2022/12/11 11:03:01;;;;;;;16.42;11.07;;;3.10;99.90;;;;;;5037772;28;20079;-39
2022/12/11 11:05:37;;;;;;;18.10;12.52;;;3.10;99.90;;;;;;5039847;28;20108;-39
2022/12/11 11:08:21;;;;;;;20.83;13.40;;;3.10;99.90;;;;;;5038350;28;20017;-37
2022/12/11 11:10:58;;;;;;;17.52;11.50;;;3.00;99.90;;;;;;5039763;28;20086;-40
2022/12/11 11:13:26;;;;;;;18.17;11.77;;;3.00;99.90;;;;;;5035673;28;20033;-39
2022/12/11 11:16:19;;;;;;;17.52;12.27;;;3.10;99.90;;;;;;5039946;28;20102;-40
2022/12/11 11:18:52;;;;;;;16.45;10.95;;;3.10;99.90;;;;;;5037935;28;20083;-37
2022/12/11 11:21:21;;;;;;;16.58;11.13;;;3.10;99.90;;;;;;5039327;28;20155;-38
2022/12/11 11:23:46;;;;;;;21.02;13.52;;;3.10;99.90;;;;;;5040177;28;20028;-40
2022/12/11 11:26:12;;;;;;;18.60;12.52;;;3.10;99.90;;;;;;5038954;28;20021;-40
2022/12/11 11:28:41;;;;;;;20.23;13.15;;;3.10;99.90;;;;;;5038338;28;20047;-37
2022/12/11 11:31:10;;;;;;;19.00;12.98;;;3.20;99.90;;;;;;5038979;28;20088;-40
2022/12/11 11:33:44;;;;;;;19.70;13.30;;;3.20;99.90;;;;;;5038507;28;20412;-40
2022/12/11 11:36:23;;;;;;;17.35;12.20;;;3.20;99.90;;;;;;5040460;28;20542;-40
2022/12/11 11:39:01;;;;;;;19.48;13.20;;;3.20;99.90;;;;;;5038542;28;20071;-39
2022/12/11 11:41:39;;;;;;;18.48;13.10;;;3.20;99.90;;;;;;5038623;28;20032;-39
2022/12/11 11:44:09;;;;;;;23.35;15.00;;;3.20;99.90;;;;;;5038935;28;20082;-40
2022/12/11 11:47:09;;;;;;;22.90;15.70;;;3.20;99.90;;;;;;5039404;28;20112;-40
2022/12/11 11:49:56;;;;;;;22.08;15.05;;;3.20;99.90;;;;;;5035821;28;20029;-38
2022/12/11 11:52:31;;;;;;;20.83;14.35;;;3.20;99.90;;;;;;5038710;28;20053;-40
2022/12/11 11:55:18;;;;;;;22.05;15.35;;;3.20;99.90;;;;;;5038349;28;20499;-39
2022/12/11 11:57:51;;;;;;;23.95;15.40;;;3.20;99.90;;;;;;5038908;28;20025;-39
2022/12/11 12:00:23;;;;;;;20.02;14.35;;;3.20;99.90;;;;;;5040006;28;20060;-40
2022/12/11 12:02:53;;;;;;;21.25;15.32;;;3.10;99.90;;;;;;5042092;28;20151;-39
2022/12/11 12:05:27;;;;;;;20.67;13.63;;;3.10;99.90;;;;;;5042685;28;20017;-40
2022/12/11 12:08:14;;;;;;;23.70;15.30;;;3.20;99.90;;;;;;5042730;28;20029;-38
2022/12/11 12:11:41;;;;;;;21.58;14.48;;;3.20;99.90;;;;;;5042761;28;20602;-39
2022/12/11 12:14:13;;;;;;;22.20;15.00;;;3.10;99.90;;;;;;5011932;28;20052;-39
2022/12/11 12:16:50;;;;;;;23.03;14.77;;;3.10;99.90;;;;;;5018889;28;20030;-40
2022/12/11 12:19:31;;;;;;;20.38;13.73;;;3.10;99.90;;;;;;5036353;28;20052;-38
2022/12/11 12:22:06;;;;;;;19.88;13.50;;;3.10;99.90;;;;;;5042374;28;20025;-40
2022/12/11 12:24:53;;;;;;;21.10;13.65;;;3.10;99.90;;;;;;5042433;28;20112;-39
2022/12/11 12:27:35;;;;;;;18.20;12.45;;;3.10;99.90;;;;;;5042108;28;20100;-38
2022/12/11 12:30:07;;;;;;;22.98;13.32;;;3.10;99.90;;;;;;5041626;28;20105;-39
2022/12/11 12:33:14;;;;;;;20.02;13.63;;;3.10;99.90;;;;;;5042244;28;20064;-40
2022/12/11 12:36:01;;;;;;;21.27;13.07;;;3.10;99.90;;;;;;5042612;28;20029;-38
2022/12/11 12:38:43;;;;;;;21.25;14.10;;;3.10;99.90;;;;;;5042302;28;20025;-38
2022/12/11 12:41:28;;;;;;;21.63;13.73;;;3.10;99.90;;;;;;5041346;28;20035;-39
2022/12/11 12:44:04;;;;;;;22.08;14.20;;;3.10;99.90;;;;;;5041263;28;20029;-38
2022/12/11 12:46:45;;;;;;;23.70;13.93;;;3.10;99.90;;;;;;5039165;28;20029;-37
2022/12/11 12:49:16;;;;;;;21.27;13.77;;;3.10;99.90;;;;;;5041716;28;20052;-39
2022/12/11 12:51:43;;;;;;;21.17;13.52;;;3.10;99.90;;;;;;5038481;28;20127;-40
2022/12/11 12:54:15;;;;;;;21.35;12.52;;;3.10;99.90;;;;;;5042630;28;20048;-38
2022/12/11 12:56:43;;;;;;;22.45;14.55;;;3.10;99.90;;;;;;5040240;28;20378;-38
2022/12/11 12:59:20;;;;;;;21.13;13.88;;;3.10;99.90;;;;;;5041581;28;20028;-36
2022/12/11 13:01:51;;;;;;;24.42;13.73;;;3.10;99.90;;;;;;5042580;28;20036;-39